createdAt,value
2022-09-06T00:01:18.311Z,10.10
2022-09-06T00:03:46.782Z,5.30
2022-09-06T00:06:18.241Z,5.20
2022-09-06T00:08:48.576Z,5.60
2022-09-06T00:11:18.211Z,5.70
2022-09-06T00:13:47.935Z,5.40
2022-09-06T00:16:19.966Z,5.80
2022-09-06T00:18:48.471Z,6.00
2022-09-06T00:21:25.364Z,5.50
2022-09-06T00:24:22.307Z,4.80
2022-09-06T00:26:53.539Z,4.90
2022-09-06T00:29:43.823Z,6.80
2022-09-06T00:32:12.850Z,4.90
2022-09-06T00:34:41.098Z,4.60
2022-09-06T00:37:09.464Z,4.90
2022-09-06T00:39:42.658Z,4.50
2022-09-06T00:42:13.263Z,6.10
2022-09-06T00:44:41.555Z,4.60
2022-09-06T00:47:10.342Z,6.80
2022-09-06T00:49:44.278Z,4.90
2022-09-06T00:52:15.318Z,5.60
2022-09-06T00:54:44.307Z,5.00
2022-09-06T00:57:15.047Z,6.00
2022-09-06T00:59:45.204Z,5.50
2022-09-06T01:02:14.045Z,5.00
2022-09-06T01:04:45.263Z,5.90
2022-09-06T01:07:31.758Z,6.20
2022-09-06T01:10:06.030Z,6.30
2022-09-06T01:12:42.960Z,5.90
2022-09-06T01:15:39.388Z,5.70
2022-09-06T01:18:32.385Z,5.90
2022-09-06T01:21:18.972Z,9.70
2022-09-06T01:24:04.871Z,7.80
2022-09-06T01:27:06.752Z,7.60
2022-09-06T01:29:40.780Z,6.50
2022-09-06T01:32:33.080Z,7.20
2022-09-06T01:35:16.161Z,6.50
2022-09-06T01:37:44.569Z,12.10
2022-09-06T01:40:12.699Z,7.00
2022-09-06T01:42:42.707Z,7.40
2022-09-06T01:45:15.865Z,7.00
2022-09-06T01:48:05.142Z,6.50
2022-09-06T01:51:04.732Z,6.60
2022-09-06T01:54:00.573Z,7.60
2022-09-06T01:56:28.578Z,5.40
2022-09-06T01:59:21.545Z,11.30
2022-09-06T02:02:15.581Z,5.60
2022-09-06T02:04:57.264Z,5.50
2022-09-06T02:07:28.932Z,5.20
2022-09-06T02:10:22.550Z,6.00
2022-09-06T02:12:54.689Z,6.10
2022-09-06T02:15:37.323Z,5.90
2022-09-06T02:18:16.535Z,5.90
2022-09-06T02:20:54.503Z,6.20
2022-09-06T02:23:30.126Z,5.10
2022-09-06T02:26:06.843Z,5.30
2022-09-06T02:31:10.955Z,5.70
2022-09-06T02:33:41.164Z,5.70
2022-09-06T02:36:10.089Z,5.30
2022-09-06T02:38:40.967Z,6.30
2022-09-06T02:41:11.163Z,5.20
2022-09-06T02:43:40.263Z,5.70
2022-09-06T02:46:10.047Z,6.70
2022-09-06T02:48:38.788Z,7.20
2022-09-06T02:51:09.517Z,7.00
2022-09-06T02:53:38.043Z,7.60
2022-09-06T02:56:28.020Z,8.00
2022-09-06T02:59:02.877Z,9.30
2022-09-06T03:01:32.971Z,7.90
2022-09-06T03:05:02.524Z,7.10
2022-09-06T03:08:46.581Z,6.70
2022-09-06T03:12:15.834Z,6.70
2022-09-06T03:14:54.240Z,6.80
2022-09-06T03:17:40.357Z,7.80
2022-09-06T03:20:43.005Z,7.20
2022-09-06T03:23:35.439Z,9.10
2022-09-06T03:27:04.729Z,7.00
2022-09-06T03:30:53.465Z,8.00
2022-09-06T03:34:41.437Z,7.30
2022-09-06T03:38:17.406Z,8.00
2022-09-06T03:42:06.031Z,6.60
2022-09-06T03:45:35.959Z,8.60
2022-09-06T03:48:29.004Z,7.00
2022-09-06T03:51:37.414Z,7.60
2022-09-06T03:55:05.980Z,10.60
2022-09-06T03:57:54.574Z,7.10
2022-09-06T04:00:26.041Z,7.80
2022-09-06T04:03:55.979Z,9.90
2022-09-06T04:06:45.451Z,8.00
2022-09-06T04:09:38.515Z,11.90
2022-09-06T04:13:09.061Z,10.10
2022-09-06T04:15:58.388Z,9.80
2022-09-06T04:18:26.919Z,9.10
2022-09-06T04:20:56.601Z,11.70
2022-09-06T04:23:29.052Z,12.70
2022-09-06T04:25:59.128Z,9.00
2022-09-06T04:28:28.166Z,14.80
2022-09-06T04:31:05.372Z,18.00
2022-09-06T04:33:35.710Z,18.20
2022-09-06T04:36:07.829Z,24.30
2022-09-06T04:38:52.675Z,15.00
2022-09-06T04:42:21.530Z,19.10
2022-09-06T04:44:52.121Z,15.50
2022-09-06T04:47:29.095Z,15.70
2022-09-06T04:49:57.871Z,10.80
2022-09-06T04:52:30.192Z,9.90
2022-09-06T04:54:59.865Z,10.10
2022-09-06T04:57:29.754Z,9.60
2022-09-06T04:59:58.713Z,13.70
2022-09-06T05:02:28.192Z,10.70
2022-09-06T05:04:57.222Z,8.00
2022-09-06T05:07:27.099Z,6.50
2022-09-06T05:09:57.717Z,7.50
2022-09-06T05:12:25.970Z,10.40
2022-09-06T05:14:54.751Z,7.90
2022-09-06T05:17:23.737Z,7.80
2022-09-06T05:19:53.940Z,8.90
2022-09-06T05:22:22.749Z,7.80
2022-09-06T05:24:50.883Z,9.10
2022-09-06T05:27:18.887Z,10.70
2022-09-06T05:29:46.788Z,10.50
2022-09-06T05:32:14.666Z,12.90
2022-09-06T05:34:43.975Z,15.10
2022-09-06T05:37:12.004Z,15.80
2022-09-06T05:39:40.045Z,15.20
2022-09-06T05:42:08.128Z,15.20
2022-09-06T05:44:37.456Z,12.20
2022-09-06T05:47:05.570Z,16.90
2022-09-06T05:49:33.587Z,15.80
2022-09-06T05:52:01.918Z,13.00
2022-09-06T05:54:30.102Z,15.10
2022-09-06T05:56:58.088Z,13.20
2022-09-06T05:59:26.672Z,14.70
2022-09-06T06:01:55.403Z,11.80
2022-09-06T06:04:23.552Z,11.80
2022-09-06T06:06:52.051Z,14.90
2022-09-06T06:09:20.092Z,14.20
2022-09-06T06:11:48.822Z,18.30
2022-09-06T06:14:16.863Z,16.30
2022-09-06T06:16:44.944Z,13.60
2022-09-06T06:19:13.233Z,13.90
2022-09-06T06:21:41.264Z,14.00
2022-09-06T06:24:09.265Z,17.60
2022-09-06T06:26:37.852Z,13.90
2022-09-06T06:29:09.659Z,15.40
2022-09-06T06:31:39.320Z,18.50
2022-09-06T06:34:08.021Z,17.30
2022-09-06T06:36:37.320Z,16.90
2022-09-06T06:39:08.488Z,13.60
2022-09-06T06:41:36.452Z,16.00
2022-09-06T06:44:05.721Z,18.40
2022-09-06T06:46:37.114Z,15.60
2022-09-06T06:49:05.981Z,20.40
2022-09-06T06:51:38.282Z,19.30
2022-09-06T06:54:06.642Z,19.30
2022-09-06T06:56:37.114Z,21.20
2022-09-06T06:59:07.113Z,25.30
2022-09-06T07:01:36.604Z,32.90
2022-09-06T07:04:05.733Z,27.80
2022-09-06T07:12:31.947Z,25.10
2022-09-06T07:15:00.184Z,27.30
2022-09-06T07:17:28.292Z,28.10
2022-09-06T07:22:40.442Z,22.50
2022-09-06T07:25:12.194Z,24.60
2022-09-06T07:27:48.877Z,24.50
2022-09-06T07:30:19.855Z,22.30
2022-09-06T07:32:48.584Z,24.90
2022-09-06T07:35:17.256Z,21.30
2022-09-06T07:38:01.092Z,23.60
2022-09-06T07:40:31.298Z,19.20
2022-09-06T07:43:06.547Z,20.50
2022-09-06T07:45:36.014Z,20.30
2022-09-06T07:48:04.164Z,21.10
2022-09-06T07:50:49.095Z,17.80
2022-09-06T07:53:24.608Z,20.20
2022-09-06T07:56:03.736Z,15.30
2022-09-06T07:58:32.839Z,14.40
2022-09-06T08:01:39.777Z,15.10
2022-09-06T08:04:10.773Z,12.50
2022-09-06T08:09:29.495Z,9.80
2022-09-06T08:11:57.548Z,10.50
2022-09-06T08:14:25.579Z,11.40
2022-09-06T08:16:53.608Z,10.70
2022-09-06T08:19:21.601Z,9.20
2022-09-06T08:21:49.889Z,10.60
2022-09-06T08:24:18.050Z,11.20
2022-09-06T08:26:46.149Z,9.90
2022-09-06T08:29:14.561Z,8.90
2022-09-06T08:31:44.397Z,9.00
2022-09-06T08:34:14.394Z,25.20
2022-09-06T08:36:43.374Z,14.30
2022-09-06T08:39:12.055Z,10.80
2022-09-06T08:41:54.907Z,8.90
2022-09-06T08:47:17.477Z,6.00
2022-09-06T08:49:55.743Z,6.70
2022-09-06T08:52:54.460Z,8.00
2022-09-06T08:55:43.642Z,6.30
2022-09-06T08:58:27.021Z,6.50
2022-09-06T09:01:01.069Z,5.80
2022-09-06T09:03:37.522Z,5.80
2022-09-06T09:06:09.435Z,4.30
2022-09-06T09:09:02.006Z,6.90
2022-09-06T09:11:33.683Z,5.10
2022-09-06T09:14:23.612Z,6.10
2022-09-06T09:16:54.603Z,6.20
2022-09-06T09:19:22.812Z,6.90
2022-09-06T09:21:50.932Z,5.80
2022-09-06T09:24:18.992Z,4.70
2022-09-06T09:27:02.885Z,4.50
2022-09-06T09:29:35.686Z,5.10
2022-09-06T09:32:04.449Z,4.70
2022-09-06T09:34:36.360Z,7.90
2022-09-06T09:40:39.244Z,4.40
2022-09-06T09:43:18.127Z,9.90
2022-09-06T09:45:46.960Z,4.70
2022-09-06T09:48:27.314Z,3.60
2022-09-06T09:50:56.257Z,3.10
2022-09-06T09:53:24.678Z,4.80
2022-09-06T09:55:59.683Z,3.50
2022-09-06T09:58:37.214Z,3.90
2022-09-06T10:01:29.263Z,3.50
2022-09-06T10:07:22.925Z,4.30
2022-09-06T10:10:05.032Z,6.60
2022-09-06T10:12:41.478Z,5.20
2022-09-06T10:15:33.956Z,2.40
2022-09-06T10:18:02.054Z,6.30
2022-09-06T10:20:55.066Z,4.40
2022-09-06T10:26:51.449Z,2.80
2022-09-06T10:29:36.066Z,7.00
2022-09-06T10:32:09.087Z,3.10
2022-09-06T10:34:55.896Z,3.60
2022-09-06T10:40:12.876Z,4.70
2022-09-06T10:42:47.203Z,5.10
2022-09-06T10:45:21.197Z,6.10
2022-09-06T10:47:49.455Z,7.40
2022-09-06T10:50:17.620Z,7.70
2022-09-06T10:52:49.072Z,6.90
2022-09-06T10:55:18.887Z,5.80
2022-09-06T10:58:20.883Z,8.10
2022-09-06T11:00:52.983Z,12.90
2022-09-06T11:04:01.981Z,8.30
2022-09-06T11:06:43.246Z,7.50
2022-09-06T11:09:41.494Z,3.70
2022-09-06T11:12:12.613Z,7.30
2022-09-06T11:14:41.591Z,9.40
2022-09-06T11:17:30.815Z,6.20
2022-09-06T11:20:29.802Z,2.60
2022-09-06T11:23:02.757Z,2.90
2022-09-06T11:25:55.128Z,2.80
2022-09-06T11:28:34.649Z,12.30
2022-09-06T11:31:04.378Z,6.50
2022-09-06T11:33:39.981Z,3.50
2022-09-06T11:36:28.776Z,5.90
2022-09-06T11:39:02.355Z,9.00
2022-09-06T11:41:37.319Z,3.90
2022-09-06T11:44:06.613Z,3.70
2022-09-06T11:46:34.593Z,5.90
2022-09-06T11:49:02.695Z,8.40
2022-09-06T11:51:39.273Z,3.00
2022-09-06T11:54:19.200Z,5.60
2022-09-06T11:56:47.184Z,3.50
2022-09-06T11:59:18.873Z,9.60
2022-09-06T12:02:27.046Z,5.20
2022-09-06T12:05:01.341Z,10.60
2022-09-06T12:07:52.981Z,4.30
2022-09-06T12:10:29.972Z,3.60
2022-09-06T12:12:58.937Z,3.40
2022-09-06T12:15:28.631Z,3.80
2022-09-06T12:17:58.906Z,7.10
2022-09-06T12:20:48.583Z,7.60
2022-09-06T12:23:34.815Z,4.20
2022-09-06T12:26:08.163Z,4.30
2022-09-06T12:28:43.150Z,4.90
2022-09-06T12:31:28.565Z,8.10
2022-09-06T12:33:58.545Z,6.10
2022-09-06T12:36:31.537Z,3.70
2022-09-06T12:39:09.656Z,6.20
2022-09-06T12:41:43.614Z,4.70
2022-09-06T12:44:13.535Z,3.30
2022-09-06T12:46:49.993Z,4.90
2022-09-06T12:49:21.009Z,4.70
2022-09-06T12:51:49.949Z,10.40
2022-09-06T12:54:28.728Z,5.20
2022-09-06T12:57:12.929Z,4.10
2022-09-06T12:59:54.826Z,3.10
2022-09-06T13:02:30.435Z,9.40
2022-09-06T13:05:07.454Z,5.90
2022-09-06T13:07:45.289Z,6.10
2022-09-06T13:10:19.247Z,5.50
2022-09-06T13:12:50.959Z,3.70
2022-09-06T13:15:31.359Z,4.20
2022-09-06T13:18:21.613Z,3.70
2022-09-06T13:21:06.712Z,5.10
2022-09-06T13:23:49.939Z,2.80
2022-09-06T13:26:39.254Z,4.50
2022-09-06T13:29:31.360Z,2.70
2022-09-06T13:32:02.421Z,3.50
2022-09-06T13:34:32.804Z,2.80
2022-09-06T13:37:07.947Z,1.50
2022-09-06T13:39:35.960Z,2.60
2022-09-06T13:42:07.575Z,1.40
2022-09-06T13:44:37.831Z,1.80
2022-09-06T13:47:06.536Z,2.70
2022-09-06T13:49:34.661Z,1.70
2022-09-06T13:52:04.292Z,1.50
2022-09-06T13:54:33.170Z,1.60
2022-09-06T13:57:03.945Z,3.70
2022-09-06T13:59:32.037Z,3.20
2022-09-06T14:02:09.941Z,1.40
2022-09-06T14:04:38.943Z,2.00
2022-09-06T14:07:06.915Z,8.00
2022-09-06T14:09:35.209Z,5.10
2022-09-06T14:12:06.664Z,2.30
2022-09-06T14:14:34.834Z,2.90
2022-09-06T14:17:03.015Z,4.70
2022-09-06T14:19:31.051Z,1.60
2022-09-06T14:21:59.021Z,1.50
2022-09-06T14:24:27.110Z,7.00
2022-09-06T14:26:55.033Z,3.50
2022-09-06T14:29:23.431Z,1.70
2022-09-06T14:31:51.406Z,2.10
2022-09-06T14:34:19.380Z,1.60
2022-09-06T14:36:47.377Z,1.50
2022-09-06T14:39:15.346Z,5.20
2022-09-06T14:41:43.434Z,2.20
2022-09-06T14:44:14.613Z,2.50
2022-09-06T14:46:43.889Z,1.90
2022-09-06T14:49:11.885Z,2.00
2022-09-06T14:51:42.033Z,3.30
2022-09-06T14:54:19.076Z,3.00
2022-09-06T14:57:03.508Z,1.50
2022-09-06T14:59:31.779Z,1.60
2022-09-06T15:02:00.110Z,1.60
2022-09-06T15:04:29.824Z,1.80
2022-09-06T15:06:58.316Z,2.70
2022-09-06T15:09:26.537Z,7.10
2022-09-06T15:11:55.580Z,2.10
2022-09-06T15:14:26.223Z,1.50
2022-09-06T15:16:58.207Z,2.70
2022-09-06T15:19:43.066Z,2.00
2022-09-06T15:22:11.111Z,1.50
2022-09-06T15:24:40.244Z,6.80
2022-09-06T15:27:08.300Z,1.70
2022-09-06T15:29:36.533Z,2.40
2022-09-06T15:32:26.827Z,1.60
2022-09-06T15:35:14.177Z,1.40
2022-09-06T15:37:42.281Z,1.40
2022-09-06T15:40:11.025Z,4.60
2022-09-06T15:42:39.824Z,2.20
2022-09-06T15:45:08.960Z,2.20
2022-09-06T15:47:39.154Z,3.70
2022-09-06T15:50:08.219Z,3.40
2022-09-06T15:52:37.430Z,2.20
2022-09-06T15:55:24.437Z,1.90
2022-09-06T15:57:53.162Z,1.50
2022-09-06T16:00:23.767Z,1.60
2022-09-06T16:02:53.110Z,1.90
2022-09-06T16:08:17.609Z,5.90
2022-09-06T16:10:52.958Z,2.50
2022-09-06T16:13:29.658Z,3.30
2022-09-06T16:16:19.353Z,1.90
2022-09-06T16:18:49.907Z,5.10
2022-09-06T16:21:24.062Z,2.00
2022-09-06T16:23:55.817Z,1.80
2022-09-06T16:26:26.279Z,2.20
2022-09-06T16:28:55.046Z,1.90
2022-09-06T16:31:23.433Z,5.80
2022-09-06T16:33:51.737Z,4.70
2022-09-06T16:36:21.543Z,4.80
2022-09-06T16:38:50.717Z,8.80
2022-09-06T16:41:30.660Z,7.00
2022-09-06T16:43:59.112Z,4.40
2022-09-06T16:46:29.903Z,4.10
2022-09-06T16:49:03.340Z,6.30
2022-09-06T16:51:32.331Z,2.50
2022-09-06T16:54:01.057Z,3.90
2022-09-06T16:56:33.586Z,2.60
2022-09-06T16:59:04.939Z,2.40
2022-09-06T17:01:33.992Z,2.30
2022-09-06T17:04:02.771Z,10.90
2022-09-06T17:06:32.651Z,5.40
2022-09-06T17:09:00.795Z,7.70
2022-09-06T17:11:29.809Z,7.50
2022-09-06T17:13:58.261Z,7.80
2022-09-06T17:16:45.329Z,6.10
2022-09-06T17:19:14.211Z,4.70
2022-09-06T17:21:43.824Z,8.10
2022-09-06T17:24:12.541Z,3.30
2022-09-06T17:26:41.439Z,3.90
2022-09-06T17:29:09.465Z,3.60
2022-09-06T17:31:39.660Z,3.70
2022-09-06T17:34:07.830Z,4.40
2022-09-06T17:36:36.650Z,5.30
2022-09-06T17:39:13.947Z,6.50
2022-09-06T17:41:48.020Z,3.30
2022-09-06T17:44:19.757Z,18.10
2022-09-06T17:47:13.950Z,9.70
2022-09-06T17:49:44.323Z,4.90
2022-09-06T17:52:16.548Z,5.30
2022-09-06T17:54:50.334Z,4.00
2022-09-06T17:57:21.764Z,3.80
2022-09-06T17:59:56.409Z,3.90
2022-09-06T18:02:26.687Z,4.60
2022-09-06T18:04:56.020Z,9.40
2022-09-06T18:07:24.753Z,5.50
2022-09-06T18:09:53.731Z,4.20
2022-09-06T18:12:43.642Z,4.70
2022-09-06T18:15:14.218Z,4.20
2022-09-06T18:17:43.521Z,3.80
2022-09-06T18:20:14.129Z,4.70
2022-09-06T18:23:15.117Z,7.20
2022-09-06T18:25:52.824Z,54.30
2022-09-06T18:28:22.621Z,16.60
2022-09-06T18:30:51.520Z,7.00
2022-09-06T18:33:23.897Z,5.50
2022-09-06T18:35:54.729Z,5.00
2022-09-06T18:38:26.571Z,4.20
2022-09-06T18:40:56.232Z,5.80
2022-09-06T18:43:39.452Z,6.40
2022-09-06T18:46:10.949Z,3.80
2022-09-06T18:48:41.745Z,3.90
2022-09-06T18:51:34.399Z,5.30
2022-09-06T18:54:04.874Z,16.10
2022-09-06T18:56:36.469Z,10.50
2022-09-06T18:59:25.350Z,5.90
2022-09-06T19:01:53.707Z,5.10
2022-09-06T19:04:21.963Z,3.80
2022-09-06T19:06:59.499Z,4.00
2022-09-06T19:09:30.438Z,6.80
2022-09-06T19:11:59.423Z,4.30
2022-09-06T19:14:27.980Z,5.40
2022-09-06T19:16:58.241Z,4.30
2022-09-06T19:19:44.561Z,8.00
2022-09-06T19:22:18.251Z,4.20
2022-09-06T19:24:46.515Z,4.10
2022-09-06T19:27:17.163Z,4.20
2022-09-06T19:29:47.767Z,46.10
2022-09-06T19:32:24.529Z,38.10
2022-09-06T19:34:57.867Z,5.80
2022-09-06T19:37:43.437Z,6.40
2022-09-06T19:40:14.010Z,4.30
2022-09-06T19:42:48.698Z,3.80
2022-09-06T19:45:18.452Z,4.20
2022-09-06T19:47:46.548Z,5.90
2022-09-06T19:50:14.631Z,5.50
2022-09-06T19:52:42.606Z,4.60
2022-09-06T19:55:10.597Z,3.80
2022-09-06T19:57:38.985Z,7.30
2022-09-06T20:00:08.100Z,3.00
2022-09-06T20:02:39.863Z,4.30
2022-09-06T20:05:08.142Z,4.30
2022-09-06T20:07:36.127Z,3.40
2022-09-06T20:10:04.472Z,8.00
2022-09-06T20:12:32.777Z,3.10
2022-09-06T20:15:01.985Z,4.80
2022-09-06T20:17:33.623Z,3.70
2022-09-06T20:20:02.810Z,3.20
2022-09-06T20:22:31.342Z,5.30
2022-09-06T20:24:59.900Z,2.70
2022-09-06T20:27:27.870Z,4.40
2022-09-06T20:29:55.979Z,4.90
2022-09-06T20:32:23.953Z,3.80
2022-09-06T20:34:51.892Z,3.50
2022-09-06T20:37:20.401Z,4.00
2022-09-06T20:39:48.474Z,3.60
2022-09-06T20:42:16.973Z,4.60
2022-09-06T20:44:45.192Z,3.60
2022-09-06T20:47:13.339Z,5.20
2022-09-06T20:49:41.424Z,3.30
2022-09-06T20:52:09.418Z,4.00
2022-09-06T20:54:37.654Z,3.00
2022-09-06T20:57:05.566Z,4.90
2022-09-06T20:59:33.468Z,3.80
2022-09-06T21:02:01.756Z,4.00
2022-09-06T21:04:30.702Z,4.20
2022-09-06T21:06:58.724Z,3.20
2022-09-06T21:09:27.251Z,4.40
2022-09-06T21:11:57.756Z,7.80
2022-09-06T21:14:25.670Z,3.40
2022-09-06T21:16:53.647Z,4.70
2022-09-06T21:19:22.143Z,5.00
2022-09-06T21:21:50.113Z,3.70
2022-09-06T21:24:18.271Z,3.40
2022-09-06T21:26:46.377Z,3.90
2022-09-06T21:29:14.385Z,8.60
2022-09-06T21:31:42.505Z,5.40
2022-09-06T21:34:16.169Z,5.30
2022-09-06T21:36:45.457Z,4.00
2022-09-06T21:39:14.985Z,8.40
2022-09-06T21:41:44.529Z,6.20
2022-09-06T21:44:13.173Z,4.40
2022-09-06T21:46:41.348Z,5.50
2022-09-06T21:49:11.901Z,4.30
2022-09-06T21:51:40.967Z,4.30
2022-09-06T21:54:09.366Z,4.10
2022-09-06T21:56:38.870Z,8.00
2022-09-06T21:59:07.734Z,3.60
2022-09-06T22:01:37.595Z,3.80
2022-09-06T22:04:06.229Z,4.10
2022-09-06T22:06:35.854Z,3.70
2022-09-06T22:09:11.179Z,3.90
2022-09-06T22:11:41.963Z,3.30
2022-09-06T22:14:12.467Z,2.90
2022-09-06T22:16:41.762Z,4.10
2022-09-06T22:19:10.496Z,5.60
2022-09-06T22:21:38.854Z,3.60
2022-09-06T22:24:09.544Z,4.70
2022-09-06T22:26:39.060Z,6.30
2022-09-06T22:29:09.078Z,4.00
2022-09-06T22:31:37.925Z,4.40
2022-09-06T22:34:06.700Z,7.10
2022-09-06T22:36:34.666Z,5.90
2022-09-06T22:39:02.880Z,3.90
2022-09-06T22:41:32.682Z,3.30
2022-09-06T22:44:02.391Z,3.90
2022-09-06T22:46:31.346Z,3.60
2022-09-06T22:49:00.261Z,6.00
2022-09-06T22:51:28.259Z,4.40
2022-09-06T22:53:56.193Z,3.90
2022-09-06T22:56:24.663Z,3.10
2022-09-06T22:58:52.746Z,3.60
2022-09-06T23:01:20.754Z,3.20
2022-09-06T23:03:49.916Z,6.00
2022-09-06T23:06:17.926Z,3.60
2022-09-06T23:08:45.970Z,3.30
2022-09-06T23:11:16.688Z,4.50
2022-09-06T23:13:46.194Z,4.30
2022-09-06T23:16:17.804Z,5.60
2022-09-06T23:18:46.658Z,3.90
2022-09-06T23:21:19.526Z,4.00
2022-09-06T23:23:49.574Z,3.60
2022-09-06T23:26:38.127Z,3.60
2022-09-06T23:29:06.196Z,3.80
2022-09-06T23:31:35.063Z,5.60
2022-09-06T23:34:03.512Z,4.00
2022-09-06T23:36:32.149Z,4.60
2022-09-06T23:39:01.837Z,4.10
2022-09-06T23:41:30.428Z,5.20
2022-09-06T23:43:58.457Z,3.60
2022-09-06T23:46:26.537Z,7.10
2022-09-06T23:48:54.749Z,6.80
2022-09-06T23:51:22.791Z,4.10
2022-09-06T23:53:50.860Z,4.00
2022-09-06T23:56:19.252Z,4.10
2022-09-06T23:58:47.135Z,4.30
